Time;durP1;ratioP1;P1;durP2;ratioP2;P2;SDS_P1;SDS_P2;PMS_P1;PMS_P2;Temp;Humidity;BMP_temperature;BMP_pressure;BME280_temperature;BME280_humidity;BME280_pressure;Samples;Min_cycle;Max_cycle;Signal;HPM_P1;HPM_P2
2022/05/21 00:03:17;;;;;;;2.10;1.90;;;;;;;;;;10442451;28;20702;-74
2022/05/21 00:08:18;;;;;;;2.40;2.20;;;;;;;;;;10439342;28;20202;-73
2022/05/21 00:13:19;;;;;;;2.25;2.10;;;;;;;;;;10447502;28;20292;-75
2022/05/21 00:18:20;;;;;;;2.15;2.00;;;;;;;;;;10433189;28;20217;-75
2022/05/21 00:23:24;;;;;;;2.00;1.90;;;;;;;;;;10427441;28;20206;-75
2022/05/21 00:28:25;;;;;;;4.32;2.13;;;;;;;;;;10429518;28;20199;-75
2022/05/21 00:33:27;;;;;;;2.30;2.20;;;;;;;;;;10424641;28;20222;-75
2022/05/21 00:38:28;;;;;;;1.95;1.55;;;;;;;;;;10456594;28;20206;-75
2022/05/21 00:43:40;;;;;;;1.75;1.65;;;;;;;;;;10450856;28;20253;-76
2022/05/21 00:48:41;;;;;;;2.33;2.22;;;;;;;;;;10437827;28;20238;-75
2022/05/21 00:53:43;;;;;;;1.85;1.70;;;;;;;;;;10416475;28;21038;-75
2022/05/21 01:04:05;;;;;;;1.17;1.08;;;;;;;;;;10439200;28;20223;-75
2022/05/21 01:09:07;;;;;;;2.30;1.00;;;;;;;;;;10420305;28;20202;-75
2022/05/21 01:14:09;;;;;;;1.25;1.00;;;;;;;;;;10435684;28;20237;-75
2022/05/21 01:19:10;;;;;;;1.85;1.25;;;;;;;;;;10439594;28;20766;-74
2022/05/21 01:24:12;;;;;;;1.80;1.42;;;;;;;;;;10442242;28;20214;-75
2022/05/21 01:29:25;;;;;;;1.70;1.70;;;;;;;;;;10428689;28;20757;-74
2022/05/21 01:34:27;;;;;;;2.15;2.05;;;;;;;;;;10444085;28;20280;-74
2022/05/21 01:39:28;;;;;;;2.17;1.85;;;;;;;;;;10446312;28;20214;-74
2022/05/21 01:44:38;;;;;;;2.50;2.30;;;;;;;;;;10430584;28;20190;-76
2022/05/21 01:49:40;;;;;;;2.97;2.83;;;;;;;;;;10445547;28;20899;-75
2022/05/21 01:54:41;;;;;;;4.07;2.70;;;;;;;;;;10422992;28;20220;-75
2022/05/21 01:59:42;;;;;;;3.05;2.95;;;;;;;;;;10428131;28;20207;-75
2022/05/21 02:04:43;;;;;;;2.75;2.55;;;;;;;;;;10432894;28;20310;-75
2022/05/21 02:09:44;;;;;;;2.47;2.38;;;;;;;;;;10425590;28;20325;-75
2022/05/21 02:14:45;;;;;;;1.75;1.60;;;;;;;;;;10429869;28;20202;-75
2022/05/21 02:19:46;;;;;;;1.50;1.50;;;;;;;;;;10448411;28;20191;-74
2022/05/21 02:24:47;;;;;;;3.15;1.95;;;;;;;;;;10445997;28;20206;-75
2022/05/21 02:29:51;;;;;;;3.92;1.60;;;;;;;;;;10417991;28;20190;-74
2022/05/21 02:34:52;;;;;;;1.73;1.30;;;;;;;;;;10444184;28;20245;-75
2022/05/21 02:39:53;;;;;;;1.40;1.40;;;;;;;;;;10429976;28;20254;-75
2022/05/21 02:44:55;;;;;;;2.97;1.23;;;;;;;;;;10423953;28;20214;-74
2022/05/21 02:49:56;;;;;;;3.08;1.30;;;;;;;;;;10416785;28;20202;-75
2022/05/21 02:54:57;;;;;;;2.15;1.75;;;;;;;;;;10452338;28;20277;-75
2022/05/21 03:00:01;;;;;;;2.90;1.40;;;;;;;;;;10448032;28;20201;-74
2022/05/21 03:05:03;;;;;;;1.17;1.15;;;;;;;;;;10417331;28;20222;-74
2022/05/21 03:10:21;;;;;;;2.95;1.10;;;;;;;;;;10407294;28;20226;-74
2022/05/21 03:15:23;;;;;;;1.40;1.33;;;;;;;;;;10412028;28;21856;-74
2022/05/21 03:20:24;;;;;;;0.77;0.77;;;;;;;;;;10442894;28;20237;-74
2022/05/21 03:25:26;;;;;;;0.93;0.93;;;;;;;;;;10409940;28;20811;-74
2022/05/21 03:30:28;;;;;;;1.33;1.23;;;;;;;;;;10404481;28;20202;-75
2022/05/21 03:35:32;;;;;;;1.40;1.30;;;;;;;;;;10429408;28;20793;-74
2022/05/21 03:40:33;;;;;;;1.50;1.50;;;;;;;;;;10422378;28;20199;-74
2022/05/21 03:45:36;;;;;;;1.98;1.88;;;;;;;;;;10400448;28;20220;-74
2022/05/21 03:50:37;;;;;;;2.35;1.90;;;;;;;;;;10416958;28;20198;-76
2022/05/21 03:55:38;;;;;;;2.50;2.30;;;;;;;;;;10432830;28;20195;-74
2022/05/21 04:00:40;;;;;;;2.40;2.30;;;;;;;;;;10410529;28;20238;-75
2022/05/21 04:05:42;;;;;;;2.70;2.50;;;;;;;;;;10449493;28;20234;-75
2022/05/21 04:10:43;;;;;;;2.50;2.40;;;;;;;;;;10436445;28;20698;-74
2022/05/21 04:15:44;;;;;;;2.63;2.50;;;;;;;;;;10410971;28;20202;-74
2022/05/21 04:20:46;;;;;;;2.90;2.90;;;;;;;;;;10402674;28;20331;-74
2022/05/21 04:25:47;;;;;;;3.10;3.00;;;;;;;;;;10415727;28;20255;-75
2022/05/21 04:30:48;;;;;;;3.08;2.97;;;;;;;;;;10449828;28;20218;-75
2022/05/21 04:41:10;;;;;;;3.15;2.95;;;;;;;;;;10448893;28;20208;-74
2022/05/21 04:46:11;;;;;;;3.60;3.40;;;;;;;;;;10455489;28;20284;-74
2022/05/21 04:51:13;;;;;;;4.05;3.00;;;;;;;;;;10434290;28;20244;-74
2022/05/21 04:56:14;;;;;;;6.47;3.20;;;;;;;;;;10431237;28;20198;-74
2022/05/21 05:01:15;;;;;;;4.55;4.18;;;;;;;;;;10402967;28;20227;-75
2022/05/21 05:06:16;;;;;;;4.75;4.47;;;;;;;;;;10361002;28;20312;-74
2022/05/21 05:11:17;;;;;;;4.63;4.22;;;;;;;;;;10366989;28;20231;-74
2022/05/21 05:16:18;;;;;;;4.63;4.25;;;;;;;;;;10330895;28;20734;-74
2022/05/21 05:21:19;;;;;;;5.78;4.35;;;;;;;;;;10366061;28;20211;-74
2022/05/21 05:26:22;;;;;;;4.43;4.22;;;;;;;;;;10379815;28;20211;-75
2022/05/21 05:31:23;;;;;;;4.93;4.47;;;;;;;;;;10379022;28;20223;-75
2022/05/21 05:36:24;;;;;;;4.55;4.18;;;;;;;;;;10360986;28;20696;-75
2022/05/21 05:41:26;;;;;;;5.43;4.50;;;;;;;;;;10378642;28;20212;-75
2022/05/21 05:46:27;;;;;;;4.13;3.92;;;;;;;;;;10380327;28;20215;-75
2022/05/21 05:51:28;;;;;;;5.63;4.18;;;;;;;;;;10380794;28;20192;-75
2022/05/21 05:56:29;;;;;;;4.00;3.70;;;;;;;;;;10368834;28;20281;-77
2022/05/21 06:01:30;;;;;;;5.03;3.85;;;;;;;;;;10380493;28;20226;-77
2022/05/21 06:06:31;;;;;;;3.72;3.53;;;;;;;;;;10397780;28;20218;-77
2022/05/21 06:11:37;;;;;;;3.95;3.75;;;;;;;;;;10429840;28;20195;-77
2022/05/21 06:16:38;;;;;;;3.55;3.35;;;;;;;;;;10433446;28;20222;-77
2022/05/21 06:21:39;;;;;;;3.53;3.30;;;;;;;;;;10399744;28;20225;-77
2022/05/21 06:26:40;;;;;;;3.10;2.90;;;;;;;;;;10373659;28;20202;-77
2022/05/21 06:31:41;;;;;;;4.32;3.75;;;;;;;;;;10400746;28;20214;-77
2022/05/21 06:36:42;;;;;;;4.18;3.88;;;;;;;;;;10418760;28;20194;-77
2022/05/21 06:41:44;;;;;;;4.30;3.80;;;;;;;;;;10374188;28;20286;-76
2022/05/21 06:46:45;;;;;;;4.70;4.35;;;;;;;;;;10424913;28;20210;-76
2022/05/21 06:51:46;;;;;;;4.13;3.90;;;;;;;;;;10403304;28;20194;-76
2022/05/21 06:56:48;;;;;;;5.20;4.50;;;;;;;;;;10408536;28;20876;-74
2022/05/21 07:01:49;;;;;;;4.50;4.20;;;;;;;;;;10426220;28;20270;-74
2022/05/21 07:12:11;;;;;;;4.30;3.95;;;;;;;;;;10393459;28;20204;-73
2022/05/21 07:17:12;;;;;;;4.43;3.75;;;;;;;;;;10417967;28;20214;-76
2022/05/21 07:22:13;;;;;;;3.78;3.53;;;;;;;;;;10411883;28;20209;-76
2022/05/21 07:27:15;;;;;;;4.30;3.92;;;;;;;;;;10404012;28;20250;-75
2022/05/21 07:32:18;;;;;;;4.28;4.03;;;;;;;;;;10419687;28;20222;-76
2022/05/21 07:37:19;;;;;;;4.60;4.28;;;;;;;;;;10445045;28;20206;-76
2022/05/21 07:42:21;;;;;;;4.68;4.47;;;;;;;;;;10433324;28;20198;-76
2022/05/21 07:47:24;;;;;;;5.03;4.65;;;;;;;;;;10399623;28;20229;-76
2022/05/21 07:52:27;;;;;;;5.60;5.10;;;;;;;;;;10382817;28;20206;-77
2022/05/21 07:57:30;;;;;;;5.63;5.22;;;;;;;;;;10423123;28;20320;-77
2022/05/21 08:02:31;;;;;;;5.45;5.15;;;;;;;;;;10425807;28;20222;-76
2022/05/21 08:07:32;;;;;;;4.72;4.43;;;;;;;;;;10436061;28;20222;-77
2022/05/21 08:12:33;;;;;;;5.18;4.78;;;;;;;;;;10422724;28;20284;-78
2022/05/21 08:17:34;;;;;;;4.40;4.20;;;;;;;;;;10443627;28;20221;-77
2022/05/21 08:27:56;;;;;;;6.55;6.03;;;;;;;;;;10431568;28;20206;-77
2022/05/21 08:33:01;;;;;;;6.30;5.70;;;;;;;;;;10404145;28;20241;-78
2022/05/21 08:38:03;;;;;;;7.18;6.22;;;;;;;;;;10418466;28;20218;-78
2022/05/21 08:43:04;;;;;;;7.50;6.97;;;;;;;;;;10408669;28;20225;-77
2022/05/21 08:48:08;;;;;;;9.70;6.75;;;;;;;;;;10424734;28;20225;-77
2022/05/21 08:53:12;;;;;;;8.20;7.28;;;;;;;;;;10433891;28;20195;-77
2022/05/21 08:58:18;;;;;;;8.02;7.22;;;;;;;;;;10423835;28;20187;-77
2022/05/21 09:03:20;;;;;;;7.65;7.00;;;;;;;;;;10395764;28;20230;-77
2022/05/21 09:08:30;;;;;;;7.25;6.32;;;;;;;;;;10419572;28;20236;-77
2022/05/21 09:13:34;;;;;;;5.38;5.07;;;;;;;;;;10397930;28;20204;-77
2022/05/21 09:18:36;;;;;;;5.47;4.72;;;;;;;;;;10408896;28;20209;-77
2022/05/21 09:23:46;;;;;;;5.03;4.72;;;;;;;;;;10443244;28;20222;-78
2022/05/21 09:28:48;;;;;;;7.00;5.85;;;;;;;;;;10427210;28;20206;-78
2022/05/21 09:33:49;;;;;;;5.72;5.30;;;;;;;;;;10412599;28;20223;-76
2022/05/21 09:38:51;;;;;;;5.35;5.07;;;;;;;;;;10416034;28;20238;-77
2022/05/21 09:49:18;;;;;;;3.80;3.60;;;;;;;;;;10448697;28;20856;-76
2022/05/21 09:54:25;;;;;;;3.88;3.67;;;;;;;;;;10428273;28;20218;-76
2022/05/21 09:59:30;;;;;;;3.67;3.47;;;;;;;;;;10436696;28;20206;-76
2022/05/21 10:04:57;;;;;;;3.40;3.30;;;;;;;;;;10454069;28;20268;-77
2022/05/21 10:15:20;;;;;;;5.15;4.47;;;;;;;;;;10443839;28;20214;-78
2022/05/21 10:20:24;;;;;;;4.55;2.90;;;;;;;;;;10439619;28;21006;-78
2022/05/21 10:25:28;;;;;;;4.18;3.88;;;;;;;;;;10437654;28;20206;-78
2022/05/21 10:30:30;;;;;;;4.15;3.83;;;;;;;;;;10415799;28;21511;-77
2022/05/21 10:35:50;;;;;;;4.35;3.92;;;;;;;;;;10417981;28;20232;-77
2022/05/21 10:40:54;;;;;;;5.15;3.80;;;;;;;;;;10455129;28;20244;-79
2022/05/21 10:45:58;;;;;;;4.10;3.90;;;;;;;;;;10417939;28;20218;-78
2022/05/21 10:51:15;;;;;;;4.38;4.07;;;;;;;;;;10419393;28;20240;-78
2022/05/21 10:56:29;;;;;;;4.35;3.95;;;;;;;;;;10435328;28;20201;-78
2022/05/21 11:01:39;;;;;;;4.07;3.78;;;;;;;;;;10420501;28;20220;-77
2022/05/21 11:07:01;;;;;;;4.47;4.07;;;;;;;;;;10410542;28;20222;-77
2022/05/21 11:12:05;;;;;;;5.20;4.60;;;;;;;;;;10448945;28;20210;-78
2022/05/21 11:17:29;;;;;;;6.40;4.20;;;;;;;;;;10441797;28;20210;-78
2022/05/21 11:22:45;;;;;;;4.60;4.30;;;;;;;;;;10423859;28;20216;-77
2022/05/21 11:27:48;;;;;;;19.45;3.90;;;;;;;;;;10445285;28;20209;-78
2022/05/21 11:38:33;;;;;;;4.30;3.75;;;;;;;;;;10453316;28;20209;-77
2022/05/21 11:43:52;;;;;;;3.45;3.13;;;;;;;;;;10457734;28;21012;-77
2022/05/21 11:48:54;;;;;;;6.30;3.20;;;;;;;;;;10458383;28;20292;-78
2022/05/21 11:53:55;;;;;;;3.80;3.50;;;;;;;;;;10469458;28;20202;-77
2022/05/21 11:58:59;;;;;;;3.75;3.65;;;;;;;;;;10464587;28;20201;-78
2022/05/21 12:04:00;;;;;;;7.05;3.50;;;;;;;;;;10450411;28;20325;-79
2022/05/21 12:09:09;;;;;;;4.43;3.33;;;;;;;;;;10447527;28;20696;-78
2022/05/21 12:14:21;;;;;;;3.65;2.63;;;;;;;;;;10464940;28;20717;-77
2022/05/21 12:19:41;;;;;;;5.65;3.45;;;;;;;;;;10445885;28;20210;-77
2022/05/21 12:24:42;;;;;;;3.90;3.40;;;;;;;;;;10453427;28;20237;-77
2022/05/21 12:29:45;;;;;;;4.00;3.60;;;;;;;;;;10435161;28;20190;-78
2022/05/21 12:35:06;;;;;;;5.65;4.25;;;;;;;;;;10450639;28;20246;-77
2022/05/21 12:40:12;;;;;;;6.28;4.03;;;;;;;;;;10439991;28;20198;-77
2022/05/21 12:45:14;;;;;;;3.97;3.10;;;;;;;;;;10448631;28;20215;-77
2022/05/21 12:50:21;;;;;;;3.25;2.15;;;;;;;;;;10408421;28;20202;-77
2022/05/21 12:55:26;;;;;;;6.63;2.88;;;;;;;;;;10460023;28;20193;-77
2022/05/21 13:00:31;;;;;;;3.25;3.10;;;;;;;;;;10414636;28;20225;-77
2022/05/21 13:05:34;;;;;;;5.53;3.35;;;;;;;;;;10409961;28;20230;-76
2022/05/21 13:10:36;;;;;;;4.68;3.70;;;;;;;;;;10445142;28;20205;-79
2022/05/21 13:15:45;;;;;;;4.63;4.20;;;;;;;;;;10427297;28;20225;-77
2022/05/21 13:21:05;;;;;;;4.07;3.88;;;;;;;;;;10453878;28;20219;-78
2022/05/21 13:26:07;;;;;;;4.85;3.70;;;;;;;;;;10425864;28;20202;-77
2022/05/21 13:31:18;;;;;;;4.93;4.40;;;;;;;;;;10444910;28;20224;-78
2022/05/21 13:36:21;;;;;;;3.90;3.60;;;;;;;;;;10449616;28;20206;-78
2022/05/21 13:41:39;;;;;;;6.40;3.85;;;;;;;;;;10446972;28;20889;-77
2022/05/21 13:46:42;;;;;;;4.18;3.88;;;;;;;;;;10457993;28;20213;-77
2022/05/21 13:51:45;;;;;;;5.70;3.72;;;;;;;;;;10459785;28;20588;-78
2022/05/21 13:56:46;;;;;;;3.13;2.40;;;;;;;;;;10446669;28;20713;-77
2022/05/21 14:01:51;;;;;;;3.53;2.03;;;;;;;;;;10452431;28;20218;-78
2022/05/21 14:06:52;;;;;;;2.70;2.50;;;;;;;;;;10449369;28;20238;-78
2022/05/21 14:11:59;;;;;;;5.55;2.83;;;;;;;;;;10446220;28;20718;-78
2022/05/21 14:17:27;;;;;;;5.43;3.13;;;;;;;;;;10455755;28;20194;-78
2022/05/21 14:22:28;;;;;;;2.70;2.50;;;;;;;;;;10431241;28;20219;-78
2022/05/21 14:27:30;;;;;;;3.20;2.03;;;;;;;;;;10449979;28;20213;-78
2022/05/21 14:32:31;;;;;;;3.13;2.08;;;;;;;;;;10462498;28;20210;-78
2022/05/21 14:37:33;;;;;;;4.25;2.63;;;;;;;;;;10462874;28;20213;-78
2022/05/21 14:42:34;;;;;;;3.17;2.30;;;;;;;;;;10449077;28;20234;-77
2022/05/21 14:47:53;;;;;;;3.35;2.83;;;;;;;;;;10449383;28;20220;-78
2022/05/21 14:52:59;;;;;;;2.80;2.55;;;;;;;;;;10466160;28;20217;-78
2022/05/21 14:58:00;;;;;;;3.20;2.95;;;;;;;;;;10467827;28;20240;-77
2022/05/21 15:03:01;;;;;;;4.75;1.70;;;;;;;;;;10458704;28;20332;-77
2022/05/21 15:08:02;;;;;;;1.95;1.20;;;;;;;;;;10463585;28;20205;-78
2022/05/21 15:13:03;;;;;;;3.05;2.75;;;;;;;;;;10428466;28;20233;-76
2022/05/21 15:18:05;;;;;;;5.30;3.40;;;;;;;;;;10435891;28;20262;-77
2022/05/21 15:23:07;;;;;;;4.18;3.25;;;;;;;;;;10430287;28;20196;-77
2022/05/21 15:28:10;;;;;;;2.95;2.75;;;;;;;;;;10433689;28;20205;-77
2022/05/21 15:33:13;;;;;;;4.32;3.45;;;;;;;;;;10438856;28;20206;-77
2022/05/21 15:38:15;;;;;;;4.80;2.75;;;;;;;;;;10435615;28;20198;-76
2022/05/21 15:43:17;;;;;;;7.78;3.83;;;;;;;;;;10436399;28;20214;-76
2022/05/21 15:48:19;;;;;;;4.20;2.88;;;;;;;;;;10430888;28;20210;-77
2022/05/21 15:53:20;;;;;;;8.13;3.05;;;;;;;;;;10442723;28;20213;-77
2022/05/21 15:58:22;;;;;;;6.72;2.40;;;;;;;;;;10431341;28;20214;-77
2022/05/21 16:03:23;;;;;;;4.65;2.10;;;;;;;;;;10449233;28;20234;-76
2022/05/21 16:08:25;;;;;;;5.82;2.20;;;;;;;;;;10445361;28;20263;-77
2022/05/21 16:13:26;;;;;;;3.47;1.67;;;;;;;;;;10443260;28;20587;-76
2022/05/21 16:18:27;;;;;;;13.50;2.13;;;;;;;;;;10430675;28;20529;-76
2022/05/21 16:23:28;;;;;;;4.97;2.13;;;;;;;;;;10458974;28;20205;-77
2022/05/21 16:28:29;;;;;;;5.60;1.92;;;;;;;;;;10470962;28;20221;-77
2022/05/21 16:33:30;;;;;;;9.23;3.80;;;;;;;;;;10466182;28;20218;-77
2022/05/21 16:38:31;;;;;;;5.53;1.75;;;;;;;;;;10434864;28;20260;-77
2022/05/21 16:43:33;;;;;;;2.25;2.15;;;;;;;;;;10414281;28;20202;-77
2022/05/21 16:48:36;;;;;;;4.65;2.08;;;;;;;;;;10444971;28;20202;-77
2022/05/21 16:53:39;;;;;;;4.45;2.83;;;;;;;;;;10428149;28;20209;-77
2022/05/21 16:58:40;;;;;;;3.75;3.25;;;;;;;;;;10461829;28;20297;-77
2022/05/21 17:03:42;;;;;;;4.45;3.33;;;;;;;;;;10435708;28;20222;-77
2022/05/21 17:08:43;;;;;;;2.92;2.72;;;;;;;;;;10440353;28;21107;-77
2022/05/21 17:13:45;;;;;;;3.90;3.30;;;;;;;;;;10440869;28;20548;-77
2022/05/21 17:18:46;;;;;;;6.95;3.92;;;;;;;;;;10421180;28;20276;-77
2022/05/21 17:23:48;;;;;;;5.47;3.65;;;;;;;;;;10419318;28;20198;-77
2022/05/21 17:34:08;;;;;;;9.65;4.18;;;;;;;;;;10420121;28;20217;-77
2022/05/21 17:39:09;;;;;;;7.13;4.00;;;;;;;;;;10420204;28;20237;-74
2022/05/21 17:44:11;;;;;;;9.65;3.83;;;;;;;;;;10418398;28;20233;-77
2022/05/21 17:49:12;;;;;;;7.75;4.10;;;;;;;;;;10459975;28;20474;-76
2022/05/21 17:54:16;;;;;;;5.22;3.80;;;;;;;;;;10463337;28;20202;-76
2022/05/21 17:59:17;;;;;;;4.70;3.92;;;;;;;;;;10447908;28;20241;-77
2022/05/21 18:04:18;;;;;;;5.47;4.22;;;;;;;;;;10462483;28;20236;-76
2022/05/21 18:09:19;;;;;;;6.10;4.32;;;;;;;;;;10408364;28;22304;-76
2022/05/21 18:14:21;;;;;;;4.20;3.88;;;;;;;;;;10407862;28;20322;-77
2022/05/21 18:19:24;;;;;;;6.28;3.70;;;;;;;;;;10438801;28;20202;-76
2022/05/21 18:24:25;;;;;;;4.63;3.60;;;;;;;;;;10427234;28;20214;-76
2022/05/21 18:29:27;;;;;;;8.10;3.70;;;;;;;;;;10439625;28;20309;-77
2022/05/21 18:34:31;;;;;;;6.85;3.33;;;;;;;;;;10418479;28;20222;-76
2022/05/21 18:39:32;;;;;;;3.78;2.50;;;;;;;;;;10399861;28;20210;-76
2022/05/21 18:44:33;;;;;;;9.60;3.47;;;;;;;;;;10388237;28;20206;-77
2022/05/21 18:49:34;;;;;;;3.35;2.70;;;;;;;;;;10439748;28;20573;-77
2022/05/21 18:54:35;;;;;;;6.03;3.33;;;;;;;;;;10432039;28;20207;-77
2022/05/21 18:59:37;;;;;;;5.80;3.13;;;;;;;;;;10446831;28;20206;-77
2022/05/21 19:04:40;;;;;;;4.90;3.38;;;;;;;;;;10452449;28;20834;-75
2022/05/21 19:09:41;;;;;;;3.92;3.53;;;;;;;;;;10430714;28;20194;-74
2022/05/21 19:14:42;;;;;;;9.32;3.95;;;;;;;;;;10426905;28;20202;-76
2022/05/21 19:19:43;;;;;;;4.10;3.72;;;;;;;;;;10432479;28;20233;-75
2022/05/21 19:24:44;;;;;;;6.78;3.90;;;;;;;;;;10407375;28;20267;-75
2022/05/21 19:29:46;;;;;;;6.85;4.13;;;;;;;;;;10454979;28;20225;-75
2022/05/21 19:34:47;;;;;;;4.88;4.18;;;;;;;;;;10437339;28;20598;-75
2022/05/21 19:45:10;;;;;;;6.80;4.25;;;;;;;;;;10442196;28;20306;-75
2022/05/21 19:50:11;;;;;;;7.38;4.13;;;;;;;;;;10444836;28;20225;-75
2022/05/21 19:55:12;;;;;;;4.55;4.05;;;;;;;;;;10428301;28;20208;-75
2022/05/21 20:00:15;;;;;;;4.70;3.75;;;;;;;;;;10439505;28;20292;-75
2022/05/21 20:05:16;;;;;;;8.15;3.33;;;;;;;;;;10446492;28;20348;-75
2022/05/21 20:10:18;;;;;;;9.82;3.03;;;;;;;;;;10420174;28;20728;-75
2022/05/21 20:15:19;;;;;;;8.75;3.90;;;;;;;;;;10426796;28;20198;-75
2022/05/21 20:20:21;;;;;;;5.55;2.88;;;;;;;;;;10406024;28;20214;-75
2022/05/21 20:25:22;;;;;;;10.13;3.30;;;;;;;;;;10417651;28;20309;-75
2022/05/21 20:30:24;;;;;;;3.50;3.15;;;;;;;;;;10433175;28;20230;-75
2022/05/21 20:35:25;;;;;;;4.82;2.97;;;;;;;;;;10450333;28;20227;-76
2022/05/21 20:40:26;;;;;;;4.97;3.30;;;;;;;;;;10429437;28;20217;-75
2022/05/21 20:45:27;;;;;;;4.20;2.83;;;;;;;;;;10398026;28;20205;-76
2022/05/21 20:50:29;;;;;;;5.50;3.70;;;;;;;;;;10396544;28;20206;-76
2022/05/21 20:55:30;;;;;;;6.53;2.90;;;;;;;;;;10400896;28;20294;-76
2022/05/21 21:00:31;;;;;;;3.55;2.80;;;;;;;;;;10416935;28;20210;-75
2022/05/21 21:05:32;;;;;;;4.93;3.22;;;;;;;;;;10425606;28;20313;-75
2022/05/21 21:10:33;;;;;;;4.47;2.92;;;;;;;;;;10408558;28;20213;-76
2022/05/21 21:15:34;;;;;;;6.22;2.63;;;;;;;;;;10398041;28;20226;-75
2022/05/21 21:20:35;;;;;;;2.45;2.30;;;;;;;;;;10449880;28;20300;-76
2022/05/21 21:25:37;;;;;;;11.38;2.55;;;;;;;;;;10444408;28;20210;-76
2022/05/21 21:30:38;;;;;;;2.55;2.00;;;;;;;;;;10464145;28;20225;-75
2022/05/21 21:35:39;;;;;;;2.65;1.50;;;;;;;;;;10458759;28;20252;-75
2022/05/21 21:40:40;;;;;;;3.97;1.40;;;;;;;;;;10433738;28;21839;-76
2022/05/21 21:45:41;;;;;;;1.88;1.60;;;;;;;;;;10454046;28;20233;-75
2022/05/21 21:50:42;;;;;;;6.25;1.55;;;;;;;;;;10433164;28;20878;-75
2022/05/21 21:55:43;;;;;;;2.03;1.08;;;;;;;;;;10450348;28;20206;-75
2022/05/21 22:06:07;;;;;;;4.30;1.70;;;;;;;;;;10453501;28;20227;-76
2022/05/21 22:11:09;;;;;;;5.95;2.38;;;;;;;;;;10420224;28;20668;-76
2022/05/21 22:16:10;;;;;;;2.72;1.75;;;;;;;;;;10464727;28;20222;-74
2022/05/21 22:21:12;;;;;;;4.82;1.80;;;;;;;;;;10453948;28;20294;-75
2022/05/21 22:26:13;;;;;;;2.88;1.65;;;;;;;;;;10405628;28;20674;-75
2022/05/21 22:31:16;;;;;;;3.90;1.90;;;;;;;;;;10462049;28;20298;-74
2022/05/21 22:36:17;;;;;;;2.10;1.70;;;;;;;;;;10405930;28;20206;-74
2022/05/21 22:41:18;;;;;;;5.03;1.90;;;;;;;;;;10441831;28;20634;-74
2022/05/21 22:46:20;;;;;;;3.47;1.85;;;;;;;;;;10404296;28;20218;-75
2022/05/21 22:51:26;;;;;;;2.65;1.70;;;;;;;;;;10405603;28;20276;-74
2022/05/21 22:56:27;;;;;;;4.15;1.48;;;;;;;;;;10413507;28;20218;-75
2022/05/21 23:01:28;;;;;;;2.50;1.33;;;;;;;;;;10422965;28;20869;-74
2022/05/21 23:06:29;;;;;;;1.85;0.98;;;;;;;;;;10435672;28;20226;-74
2022/05/21 23:11:30;;;;;;;1.45;1.15;;;;;;;;;;10436821;28;20205;-74
2022/05/21 23:27:11;;;;;;;6.30;1.42;;;;;;;;;;10447664;28;20276;-74
2022/05/21 23:32:12;;;;;;;1.27;1.15;;;;;;;;;;10434521;28;20217;-74
2022/05/21 23:37:17;;;;;;;4.68;1.50;;;;;;;;;;10437386;28;20212;-74
2022/05/21 23:42:18;;;;;;;2.25;0.90;;;;;;;;;;10427556;28;21255;-74
2022/05/21 23:47:20;;;;;;;1.63;0.73;;;;;;;;;;10447823;28;20874;-74
2022/05/21 23:52:21;;;;;;;1.35;0.63;;;;;;;;;;10433135;28;20228;-74
2022/05/21 23:57:23;;;;;;;1.83;0.82;;;;;;;;;;10412562;28;20199;-74
